Buena, New Jersey
Current Conditions -  °F | °C
As of 10:54 AM on Thursday 30 Oct 2014 (Local Time) from KMIV Reporting Station
Overcast Overcast  
Wind Chill: 52°   Ceiling: 7000
Heat Index: 52°   Visibility: 10mi
Dew Point: 43°   Wind: 8mph
Humidity: 71%   Direction: 340°NNW
Pressure: 30.03"   Gusts: NA
Location:  39.51°N, 74.92°W
Report Text: KMIV 301454Z AUTO 34007KT 10SM OVC070 11/06 A3003 RMK AO2 SLP168 T01110061 51008
Loading
Personal Weather Stations






























Interactive Weather Map
Tropical Storm Tracking
New forecast layout! Learn more

10-Day Weather Forecast

Advertisements
Track Severe Weather on mobile